sensor_id;sensor_type;location;lat;lon;timestamp;temperature;humidity
51021;DHT22;38907;45.562;8.856;2023-06-14T00:04:46;20.40;99.90
51021;DHT22;38907;45.562;8.856;2023-06-14T00:09:48;20.50;99.90
51021;DHT22;38907;45.562;8.856;2023-06-14T00:14:52;20.40;99.90
51021;DHT22;38907;45.562;8.856;2023-06-14T00:19:53;20.30;99.90
51021;DHT22;38907;45.562;8.856;2023-06-14T00:24:57;20.30;99.90
51021;DHT22;38907;45.562;8.856;2023-06-14T00:30:00;20.20;99.90
51021;DHT22;38907;45.562;8.856;2023-06-14T00:35:02;20.30;99.90
51021;DHT22;38907;45.562;8.856;2023-06-14T00:40:05;20.30;99.90
51021;DHT22;38907;45.562;8.856;2023-06-14T00:45:10;20.20;99.90
51021;DHT22;38907;45.562;8.856;2023-06-14T00:50:12;20.10;99.90
51021;DHT22;38907;45.562;8.856;2023-06-14T00:55:14;20.10;99.90
51021;DHT22;38907;45.562;8.856;2023-06-14T01:00:18;19.90;99.90
51021;DHT22;38907;45.562;8.856;2023-06-14T01:05:20;19.80;99.90
51021;DHT22;38907;45.562;8.856;2023-06-14T01:10:37;19.80;99.90
51021;DHT22;38907;45.562;8.856;2023-06-14T01:15:44;19.80;99.90
51021;DHT22;38907;45.562;8.856;2023-06-14T01:20:47;19.70;99.90
51021;DHT22;38907;45.562;8.856;2023-06-14T01:25:51;19.50;99.90
51021;DHT22;38907;45.562;8.856;2023-06-14T01:30:54;19.40;99.90
51021;DHT22;38907;45.562;8.856;2023-06-14T01:35:56;19.40;99.90
51021;DHT22;38907;45.562;8.856;2023-06-14T01:41:00;19.40;99.90
51021;DHT22;38907;45.562;8.856;2023-06-14T01:46:03;19.00;99.90
51021;DHT22;38907;45.562;8.856;2023-06-14T01:51:05;18.90;99.90
51021;DHT22;38907;45.562;8.856;2023-06-14T01:56:08;18.80;99.90
51021;DHT22;38907;45.562;8.856;2023-06-14T02:01:10;18.90;99.90
51021;DHT22;38907;45.562;8.856;2023-06-14T02:06:13;18.90;99.90
51021;DHT22;38907;45.562;8.856;2023-06-14T02:11:17;18.90;99.90
51021;DHT22;38907;45.562;8.856;2023-06-14T02:16:19;19.00;99.90
51021;DHT22;38907;45.562;8.856;2023-06-14T02:21:21;18.90;99.90
51021;DHT22;38907;45.562;8.856;2023-06-14T02:26:24;18.90;99.90
51021;DHT22;38907;45.562;8.856;2023-06-14T02:31:29;18.80;99.90
51021;DHT22;38907;45.562;8.856;2023-06-14T02:36:31;18.80;99.90
51021;DHT22;38907;45.562;8.856;2023-06-14T02:41:34;18.70;99.90
51021;DHT22;38907;45.562;8.856;2023-06-14T02:46:36;18.60;99.90
51021;DHT22;38907;45.562;8.856;2023-06-14T02:51:38;18.60;99.90
51021;DHT22;38907;45.562;8.856;2023-06-14T02:56:42;18.50;99.90
51021;DHT22;38907;45.562;8.856;2023-06-14T03:01:44;18.40;99.90
51021;DHT22;38907;45.562;8.856;2023-06-14T03:06:46;18.40;99.90
51021;DHT22;38907;45.562;8.856;2023-06-14T03:11:52;18.40;99.90
51021;DHT22;38907;45.562;8.856;2023-06-14T03:16:53;18.40;99.90
51021;DHT22;38907;45.562;8.856;2023-06-14T03:21:57;18.30;99.90
51021;DHT22;38907;45.562;8.856;2023-06-14T03:27:00;18.20;99.90
51021;DHT22;38907;45.562;8.856;2023-06-14T03:32:03;18.10;99.90
51021;DHT22;38907;45.562;8.856;2023-06-14T03:37:05;18.20;99.90
51021;DHT22;38907;45.562;8.856;2023-06-14T03:42:09;18.10;99.90
51021;DHT22;38907;45.562;8.856;2023-06-14T03:47:11;18.10;99.90
51021;DHT22;38907;45.562;8.856;2023-06-14T03:52:13;18.10;99.90
51021;DHT22;38907;45.562;8.856;2023-06-14T03:57:18;18.20;99.90
51021;DHT22;38907;45.562;8.856;2023-06-14T04:02:20;18.30;99.90
51021;DHT22;38907;45.562;8.856;2023-06-14T04:07:23;18.20;99.90
51021;DHT22;38907;45.562;8.856;2023-06-14T04:12:26;18.30;99.90
51021;DHT22;38907;45.562;8.856;2023-06-14T04:17:28;18.30;99.90
51021;DHT22;38907;45.562;8.856;2023-06-14T04:22:30;18.30;99.90
51021;DHT22;38907;45.562;8.856;2023-06-14T04:27:33;18.40;99.90
51021;DHT22;38907;45.562;8.856;2023-06-14T04:32:36;18.40;99.90
51021;DHT22;38907;45.562;8.856;2023-06-14T04:37:39;18.40;99.90
51021;DHT22;38907;45.562;8.856;2023-06-14T04:42:43;18.50;99.90
51021;DHT22;38907;45.562;8.856;2023-06-14T04:47:46;18.40;99.90
51021;DHT22;38907;45.562;8.856;2023-06-14T04:52:48;18.40;99.90
51021;DHT22;38907;45.562;8.856;2023-06-14T04:57:53;18.40;99.90
51021;DHT22;38907;45.562;8.856;2023-06-14T05:02:55;18.40;99.90
51021;DHT22;38907;45.562;8.856;2023-06-14T05:07:57;18.50;99.90
51021;DHT22;38907;45.562;8.856;2023-06-14T05:13:00;18.60;99.90
51021;DHT22;38907;45.562;8.856;2023-06-14T05:18:02;18.70;99.90
51021;DHT22;38907;45.562;8.856;2023-06-14T05:23:04;18.80;99.90
51021;DHT22;38907;45.562;8.856;2023-06-14T05:28:08;18.90;99.90
51021;DHT22;38907;45.562;8.856;2023-06-14T05:33:10;18.90;99.90
51021;DHT22;38907;45.562;8.856;2023-06-14T05:38:11;18.90;99.90
51021;DHT22;38907;45.562;8.856;2023-06-14T05:43:15;19.00;99.90
51021;DHT22;38907;45.562;8.856;2023-06-14T05:48:17;18.90;99.90
51021;DHT22;38907;45.562;8.856;2023-06-14T05:53:18;19.00;99.90
51021;DHT22;38907;45.562;8.856;2023-06-14T05:58:22;19.00;99.90
51021;DHT22;38907;45.562;8.856;2023-06-14T06:03:23;19.20;99.90
51021;DHT22;38907;45.562;8.856;2023-06-14T06:08:26;19.20;99.90
51021;DHT22;38907;45.562;8.856;2023-06-14T06:13:29;19.30;99.90
51021;DHT22;38907;45.562;8.856;2023-06-14T06:18:31;19.40;99.90
51021;DHT22;38907;45.562;8.856;2023-06-14T06:23:33;19.40;99.90
51021;DHT22;38907;45.562;8.856;2023-06-14T06:28:36;19.60;99.90
51021;DHT22;38907;45.562;8.856;2023-06-14T06:33:38;19.70;99.90
51021;DHT22;38907;45.562;8.856;2023-06-14T06:38:41;19.90;99.90
51021;DHT22;38907;45.562;8.856;2023-06-14T06:43:44;19.90;99.90
51021;DHT22;38907;45.562;8.856;2023-06-14T06:48:46;20.00;99.90
51021;DHT22;38907;45.562;8.856;2023-06-14T06:53:52;20.00;99.90
51021;DHT22;38907;45.562;8.856;2023-06-14T06:58:56;20.20;99.90
51021;DHT22;38907;45.562;8.856;2023-06-14T07:03:58;20.30;99.90
51021;DHT22;38907;45.562;8.856;2023-06-14T07:09:00;20.40;99.90
51021;DHT22;38907;45.562;8.856;2023-06-14T07:14:03;20.50;99.90
51021;DHT22;38907;45.562;8.856;2023-06-14T07:19:05;20.70;99.90
51021;DHT22;38907;45.562;8.856;2023-06-14T07:24:07;20.70;99.90
51021;DHT22;38907;45.562;8.856;2023-06-14T07:29:10;20.70;99.90
51021;DHT22;38907;45.562;8.856;2023-06-14T07:34:12;20.70;99.90
51021;DHT22;38907;45.562;8.856;2023-06-14T07:39:14;20.80;99.90
51021;DHT22;38907;45.562;8.856;2023-06-14T07:44:17;20.90;99.90
51021;DHT22;38907;45.562;8.856;2023-06-14T07:49:19;20.90;99.90
51021;DHT22;38907;45.562;8.856;2023-06-14T07:54:21;21.10;99.90
51021;DHT22;38907;45.562;8.856;2023-06-14T07:59:27;21.20;99.90
51021;DHT22;38907;45.562;8.856;2023-06-14T08:04:29;21.30;99.90
51021;DHT22;38907;45.562;8.856;2023-06-14T08:09:31;21.40;99.90
51021;DHT22;38907;45.562;8.856;2023-06-14T08:14:34;21.50;99.90
51021;DHT22;38907;45.562;8.856;2023-06-14T08:19:36;21.50;99.90
51021;DHT22;38907;45.562;8.856;2023-06-14T08:24:38;21.50;99.90
51021;DHT22;38907;45.562;8.856;2023-06-14T08:29:42;21.50;99.90
51021;DHT22;38907;45.562;8.856;2023-06-14T08:34:44;21.60;99.90
51021;DHT22;38907;45.562;8.856;2023-06-14T08:39:46;21.80;99.90
51021;DHT22;38907;45.562;8.856;2023-06-14T08:44:49;22.20;99.90
51021;DHT22;38907;45.562;8.856;2023-06-14T08:49:51;22.20;99.90
51021;DHT22;38907;45.562;8.856;2023-06-14T08:54:56;22.20;99.90
51021;DHT22;38907;45.562;8.856;2023-06-14T09:00:00;22.20;99.90
51021;DHT22;38907;45.562;8.856;2023-06-14T09:05:10;22.30;99.90
51021;DHT22;38907;45.562;8.856;2023-06-14T09:10:15;22.40;99.90
51021;DHT22;38907;45.562;8.856;2023-06-14T09:15:18;22.30;99.90
51021;DHT22;38907;45.562;8.856;2023-06-14T09:20:20;22.40;99.90
51021;DHT22;38907;45.562;8.856;2023-06-14T09:25:22;22.60;99.90
51021;DHT22;38907;45.562;8.856;2023-06-14T09:30:27;22.70;99.90
51021;DHT22;38907;45.562;8.856;2023-06-14T09:35:31;22.80;99.90
51021;DHT22;38907;45.562;8.856;2023-06-14T09:40:34;23.00;99.90
51021;DHT22;38907;45.562;8.856;2023-06-14T09:45:40;23.10;99.90
51021;DHT22;38907;45.562;8.856;2023-06-14T09:50:46;22.90;99.90
51021;DHT22;38907;45.562;8.856;2023-06-14T09:55:49;23.20;99.90
51021;DHT22;38907;45.562;8.856;2023-06-14T10:00:54;23.30;99.90
51021;DHT22;38907;45.562;8.856;2023-06-14T10:05:58;22.90;99.90
51021;DHT22;38907;45.562;8.856;2023-06-14T10:11:04;22.90;99.90
51021;DHT22;38907;45.562;8.856;2023-06-14T10:16:10;23.30;99.90
51021;DHT22;38907;45.562;8.856;2023-06-14T10:21:18;23.10;99.90
51021;DHT22;38907;45.562;8.856;2023-06-14T10:26:23;23.20;99.90
51021;DHT22;38907;45.562;8.856;2023-06-14T10:31:44;23.70;99.90
51021;DHT22;38907;45.562;8.856;2023-06-14T10:37:00;23.90;99.90
51021;DHT22;38907;45.562;8.856;2023-06-14T10:42:03;23.80;99.90
51021;DHT22;38907;45.562;8.856;2023-06-14T10:47:09;24.10;99.90
51021;DHT22;38907;45.562;8.856;2023-06-14T10:52:14;24.20;99.90
51021;DHT22;38907;45.562;8.856;2023-06-14T10:57:19;24.00;99.90
51021;DHT22;38907;45.562;8.856;2023-06-14T11:02:51;24.10;99.90
51021;DHT22;38907;45.562;8.856;2023-06-14T11:08:11;24.30;99.90
51021;DHT22;38907;45.562;8.856;2023-06-14T11:13:17;24.30;99.90
51021;DHT22;38907;45.562;8.856;2023-06-14T11:18:22;24.30;99.90
51021;DHT22;38907;45.562;8.856;2023-06-14T11:23:27;24.20;99.90
51021;DHT22;38907;45.562;8.856;2023-06-14T11:28:37;24.30;99.90
51021;DHT22;38907;45.562;8.856;2023-06-14T11:33:40;24.50;99.90
51021;DHT22;38907;45.562;8.856;2023-06-14T11:38:43;24.50;99.90
51021;DHT22;38907;45.562;8.856;2023-06-14T11:43:44;24.60;99.90
51021;DHT22;38907;45.562;8.856;2023-06-14T11:48:48;24.60;99.90
51021;DHT22;38907;45.562;8.856;2023-06-14T11:53:50;24.90;99.90
51021;DHT22;38907;45.562;8.856;2023-06-14T11:58:52;24.40;99.90
51021;DHT22;38907;45.562;8.856;2023-06-14T12:03:59;24.40;99.90
51021;DHT22;38907;45.562;8.856;2023-06-14T12:09:04;24.20;99.90
51021;DHT22;38907;45.562;8.856;2023-06-14T12:14:08;24.50;99.90
51021;DHT22;38907;45.562;8.856;2023-06-14T12:19:14;24.80;99.90
51021;DHT22;38907;45.562;8.856;2023-06-14T12:24:16;24.80;99.90
51021;DHT22;38907;45.562;8.856;2023-06-14T12:29:19;25.10;99.90
51021;DHT22;38907;45.562;8.856;2023-06-14T12:34:22;24.80;99.90
51021;DHT22;38907;45.562;8.856;2023-06-14T12:39:24;24.90;99.90
51021;DHT22;38907;45.562;8.856;2023-06-14T12:44:26;25.20;99.90
51021;DHT22;38907;45.562;8.856;2023-06-14T12:49:29;25.00;99.90
51021;DHT22;38907;45.562;8.856;2023-06-14T12:54:31;25.10;99.90
51021;DHT22;38907;45.562;8.856;2023-06-14T12:59:33;25.20;99.90
51021;DHT22;38907;45.562;8.856;2023-06-14T13:04:36;25.20;99.90
51021;DHT22;38907;45.562;8.856;2023-06-14T13:09:38;24.90;99.90
51021;DHT22;38907;45.562;8.856;2023-06-14T13:14:41;25.40;99.90
51021;DHT22;38907;45.562;8.856;2023-06-14T13:19:44;25.60;99.90
51021;DHT22;38907;45.562;8.856;2023-06-14T13:24:46;25.80;99.90
51021;DHT22;38907;45.562;8.856;2023-06-14T13:29:48;25.80;99.90
51021;DHT22;38907;45.562;8.856;2023-06-14T13:34:51;25.60;99.90
51021;DHT22;38907;45.562;8.856;2023-06-14T13:39:53;25.30;99.90
51021;DHT22;38907;45.562;8.856;2023-06-14T13:44:54;25.30;99.90
51021;DHT22;38907;45.562;8.856;2023-06-14T13:49:58;25.50;99.90
51021;DHT22;38907;45.562;8.856;2023-06-14T13:55:00;25.60;99.90
51021;DHT22;38907;45.562;8.856;2023-06-14T14:00:02;25.60;99.90
51021;DHT22;38907;45.562;8.856;2023-06-14T14:05:06;25.30;99.90
51021;DHT22;38907;45.562;8.856;2023-06-14T14:10:09;25.50;99.90
51021;DHT22;38907;45.562;8.856;2023-06-14T14:15:13;25.20;99.90
51021;DHT22;38907;45.562;8.856;2023-06-14T14:20:27;25.00;99.90
51021;DHT22;38907;45.562;8.856;2023-06-14T14:25:36;24.90;99.90
51021;DHT22;38907;45.562;8.856;2023-06-14T14:30:38;25.10;99.90
51021;DHT22;38907;45.562;8.856;2023-06-14T14:35:42;25.10;99.90
51021;DHT22;38907;45.562;8.856;2023-06-14T14:40:45;25.00;99.90
51021;DHT22;38907;45.562;8.856;2023-06-14T14:45:47;24.90;99.90
51021;DHT22;38907;45.562;8.856;2023-06-14T14:50:50;24.80;99.90
51021;DHT22;38907;45.562;8.856;2023-06-14T14:55:52;24.90;99.90
51021;DHT22;38907;45.562;8.856;2023-06-14T15:00:54;25.30;99.90
51021;DHT22;38907;45.562;8.856;2023-06-14T15:05:57;25.30;99.90
51021;DHT22;38907;45.562;8.856;2023-06-14T15:10:59;25.00;99.90
51021;DHT22;38907;45.562;8.856;2023-06-14T15:16:01;25.00;99.90
51021;DHT22;38907;45.562;8.856;2023-06-14T15:21:04;24.90;99.90
51021;DHT22;38907;45.562;8.856;2023-06-14T15:26:06;24.90;99.90
51021;DHT22;38907;45.562;8.856;2023-06-14T15:31:08;25.00;99.90
51021;DHT22;38907;45.562;8.856;2023-06-14T15:36:11;25.40;99.90
51021;DHT22;38907;45.562;8.856;2023-06-14T15:41:13;25.90;99.90
51021;DHT22;38907;45.562;8.856;2023-06-14T15:46:15;26.40;99.90
51021;DHT22;38907;45.562;8.856;2023-06-14T15:51:18;26.50;99.90
51021;DHT22;38907;45.562;8.856;2023-06-14T15:56:22;26.60;99.90
51021;DHT22;38907;45.562;8.856;2023-06-14T16:01:32;26.70;99.90
51021;DHT22;38907;45.562;8.856;2023-06-14T16:06:35;26.80;99.90
51021;DHT22;38907;45.562;8.856;2023-06-14T16:11:37;26.40;99.90
51021;DHT22;38907;45.562;8.856;2023-06-14T16:16:39;26.00;99.90
51021;DHT22;38907;45.562;8.856;2023-06-14T16:21:42;25.80;99.90
51021;DHT22;38907;45.562;8.856;2023-06-14T16:26:44;25.60;99.90
51021;DHT22;38907;45.562;8.856;2023-06-14T16:31:46;25.60;99.90
51021;DHT22;38907;45.562;8.856;2023-06-14T16:36:49;26.20;99.90
51021;DHT22;38907;45.562;8.856;2023-06-14T16:41:51;26.50;99.90
51021;DHT22;38907;45.562;8.856;2023-06-14T16:46:53;26.60;99.90
51021;DHT22;38907;45.562;8.856;2023-06-14T16:51:56;26.30;99.90
51021;DHT22;38907;45.562;8.856;2023-06-14T16:56:58;26.40;99.90
51021;DHT22;38907;45.562;8.856;2023-06-14T17:02:00;26.20;99.90
51021;DHT22;38907;45.562;8.856;2023-06-14T17:07:05;25.80;99.90
51021;DHT22;38907;45.562;8.856;2023-06-14T17:12:08;25.70;99.90
51021;DHT22;38907;45.562;8.856;2023-06-14T17:17:10;25.60;99.90
51021;DHT22;38907;45.562;8.856;2023-06-14T17:22:14;25.40;99.90
51021;DHT22;38907;45.562;8.856;2023-06-14T17:27:16;25.20;99.90
51021;DHT22;38907;45.562;8.856;2023-06-14T17:32:18;25.20;99.90
51021;DHT22;38907;45.562;8.856;2023-06-14T17:37:21;25.10;99.90
51021;DHT22;38907;45.562;8.856;2023-06-14T17:42:23;25.00;99.90
51021;DHT22;38907;45.562;8.856;2023-06-14T17:47:25;24.90;99.90
51021;DHT22;38907;45.562;8.856;2023-06-14T17:52:29;24.80;99.90
51021;DHT22;38907;45.562;8.856;2023-06-14T17:57:31;24.80;99.90
51021;DHT22;38907;45.562;8.856;2023-06-14T18:02:32;24.80;99.90
51021;DHT22;38907;45.562;8.856;2023-06-14T18:07:36;24.80;99.90
51021;DHT22;38907;45.562;8.856;2023-06-14T18:12:38;24.70;99.90
51021;DHT22;38907;45.562;8.856;2023-06-14T18:17:41;24.70;99.90
51021;DHT22;38907;45.562;8.856;2023-06-14T18:22:44;24.60;99.90
51021;DHT22;38907;45.562;8.856;2023-06-14T18:27:46;24.60;99.90
51021;DHT22;38907;45.562;8.856;2023-06-14T18:32:48;24.50;99.90
51021;DHT22;38907;45.562;8.856;2023-06-14T18:37:52;24.40;99.90
51021;DHT22;38907;45.562;8.856;2023-06-14T18:42:53;24.20;99.90
51021;DHT22;38907;45.562;8.856;2023-06-14T18:47:57;24.20;99.90
51021;DHT22;38907;45.562;8.856;2023-06-14T18:53:00;24.10;99.90
51021;DHT22;38907;45.562;8.856;2023-06-14T18:58:02;24.00;99.90
51021;DHT22;38907;45.562;8.856;2023-06-14T19:03:04;23.80;99.90
51021;DHT22;38907;45.562;8.856;2023-06-14T19:08:07;23.80;99.90
51021;DHT22;38907;45.562;8.856;2023-06-14T19:13:10;23.70;99.90
51021;DHT22;38907;45.562;8.856;2023-06-14T19:18:12;23.60;99.90
51021;DHT22;38907;45.562;8.856;2023-06-14T19:23:16;23.40;99.90
51021;DHT22;38907;45.562;8.856;2023-06-14T19:28:18;23.40;99.90
51021;DHT22;38907;45.562;8.856;2023-06-14T19:33:21;23.40;99.90
51021;DHT22;38907;45.562;8.856;2023-06-14T19:38:24;23.40;99.90
51021;DHT22;38907;45.562;8.856;2023-06-14T19:43:26;23.30;99.90
51021;DHT22;38907;45.562;8.856;2023-06-14T19:48:28;23.10;99.90
51021;DHT22;38907;45.562;8.856;2023-06-14T19:53:32;23.00;99.90
51021;DHT22;38907;45.562;8.856;2023-06-14T19:58:33;23.00;99.90
51021;DHT22;38907;45.562;8.856;2023-06-14T20:03:35;23.00;99.90
51021;DHT22;38907;45.562;8.856;2023-06-14T20:08:38;23.10;99.90
51021;DHT22;38907;45.562;8.856;2023-06-14T20:13:40;23.10;99.90
51021;DHT22;38907;45.562;8.856;2023-06-14T20:18:42;22.90;99.90
51021;DHT22;38907;45.562;8.856;2023-06-14T20:23:45;22.90;99.90
51021;DHT22;38907;45.562;8.856;2023-06-14T20:28:47;22.70;99.90
51021;DHT22;38907;45.562;8.856;2023-06-14T20:33:49;22.70;99.90
51021;DHT22;38907;45.562;8.856;2023-06-14T20:38:53;22.80;99.90
51021;DHT22;38907;45.562;8.856;2023-06-14T20:43:55;22.90;99.90
51021;DHT22;38907;45.562;8.856;2023-06-14T20:48:57;22.80;99.90
51021;DHT22;38907;45.562;8.856;2023-06-14T20:54:01;22.50;99.90
51021;DHT22;38907;45.562;8.856;2023-06-14T20:59:03;22.30;99.90
51021;DHT22;38907;45.562;8.856;2023-06-14T21:04:06;22.20;99.90
51021;DHT22;38907;45.562;8.856;2023-06-14T21:09:13;22.30;99.90
51021;DHT22;38907;45.562;8.856;2023-06-14T21:14:15;22.60;99.90
51021;DHT22;38907;45.562;8.856;2023-06-14T21:19:17;22.50;99.90
51021;DHT22;38907;45.562;8.856;2023-06-14T21:24:20;22.40;99.90
51021;DHT22;38907;45.562;8.856;2023-06-14T21:29:22;22.20;99.90
51021;DHT22;38907;45.562;8.856;2023-06-14T21:34:24;21.90;99.90
51021;DHT22;38907;45.562;8.856;2023-06-14T21:39:27;21.90;99.90
51021;DHT22;38907;45.562;8.856;2023-06-14T21:44:29;21.90;99.90
51021;DHT22;38907;45.562;8.856;2023-06-14T21:49:31;21.90;99.90
51021;DHT22;38907;45.562;8.856;2023-06-14T21:54:34;21.90;99.90
51021;DHT22;38907;45.562;8.856;2023-06-14T21:59:36;21.90;99.90
51021;DHT22;38907;45.562;8.856;2023-06-14T22:04:38;21.80;99.90
51021;DHT22;38907;45.562;8.856;2023-06-14T22:09:41;21.80;99.90
51021;DHT22;38907;45.562;8.856;2023-06-14T22:14:44;21.80;99.90
51021;DHT22;38907;45.562;8.856;2023-06-14T22:19:46;21.40;99.90
51021;DHT22;38907;45.562;8.856;2023-06-14T22:24:52;21.30;99.90
51021;DHT22;38907;45.562;8.856;2023-06-14T22:29:55;21.20;99.90
51021;DHT22;38907;45.562;8.856;2023-06-14T22:34:58;21.00;99.90
51021;DHT22;38907;45.562;8.856;2023-06-14T22:40:05;20.50;99.90
51021;DHT22;38907;45.562;8.856;2023-06-14T22:45:10;20.30;99.90
51021;DHT22;38907;45.562;8.856;2023-06-14T22:50:13;20.40;99.90
51021;DHT22;38907;45.562;8.856;2023-06-14T22:55:16;20.60;99.90
51021;DHT22;38907;45.562;8.856;2023-06-14T23:00:18;20.70;99.90
51021;DHT22;38907;45.562;8.856;2023-06-14T23:05:20;20.30;99.90
51021;DHT22;38907;45.562;8.856;2023-06-14T23:10:23;20.10;99.90
51021;DHT22;38907;45.562;8.856;2023-06-14T23:15:25;20.30;99.90
51021;DHT22;38907;45.562;8.856;2023-06-14T23:20:29;20.30;99.90
51021;DHT22;38907;45.562;8.856;2023-06-14T23:25:34;20.20;99.90
51021;DHT22;38907;45.562;8.856;2023-06-14T23:30:36;20.10;99.90
51021;DHT22;38907;45.562;8.856;2023-06-14T23:35:37;19.80;99.90
51021;DHT22;38907;45.562;8.856;2023-06-14T23:40:42;19.90;99.90
51021;DHT22;38907;45.562;8.856;2023-06-14T23:45:46;20.00;99.90
51021;DHT22;38907;45.562;8.856;2023-06-14T23:50:51;20.10;99.90
51021;DHT22;38907;45.562;8.856;2023-06-14T23:55:54;20.00;99.90
